sensor_id;sensor_type;location;lat;lon;timestamp;pressure;altitude;pressure_sealevel;temperature;humidity
71907;BME280;59781;52.090;5.030;2023-11-18T00:01:25;102387.09;;;5.86;100.00
71907;BME280;59781;52.090;5.030;2023-11-18T00:03:56;102385.19;;;5.88;100.00
71907;BME280;59781;52.090;5.030;2023-11-18T00:06:22;102395.44;;;5.81;100.00
71907;BME280;59781;52.090;5.030;2023-11-18T00:08:48;102389.53;;;6.03;100.00
71907;BME280;59781;52.090;5.030;2023-11-18T00:11:13;102384.84;;;6.19;100.00
71907;BME280;59781;52.090;5.030;2023-11-18T00:13:39;102376.03;;;5.92;100.00
71907;BME280;59781;52.090;5.030;2023-11-18T00:16:06;102380.22;;;5.96;100.00
71907;BME280;59781;52.090;5.030;2023-11-18T00:18:32;102375.94;;;5.93;100.00
71907;BME280;59781;52.090;5.030;2023-11-18T00:20:58;102375.19;;;5.91;100.00
71907;BME280;59781;52.090;5.030;2023-11-18T00:23:24;102372.41;;;5.93;100.00
71907;BME280;59781;52.090;5.030;2023-11-18T00:25:52;102374.25;;;6.05;100.00
71907;BME280;59781;52.090;5.030;2023-11-18T00:28:18;102372.06;;;5.97;100.00
71907;BME280;59781;52.090;5.030;2023-11-18T00:30:45;102375.41;;;6.01;100.00
71907;BME280;59781;52.090;5.030;2023-11-18T00:33:11;102377.03;;;6.03;100.00
71907;BME280;59781;52.090;5.030;2023-11-18T00:35:37;102370.47;;;5.95;100.00
71907;BME280;59781;52.090;5.030;2023-11-18T00:38:03;102367.44;;;5.87;100.00
71907;BME280;59781;52.090;5.030;2023-11-18T00:40:29;102378.72;;;5.92;100.00
71907;BME280;59781;52.090;5.030;2023-11-18T00:42:56;102384.47;;;5.98;100.00
71907;BME280;59781;52.090;5.030;2023-11-18T00:45:22;102383.34;;;5.88;100.00
71907;BME280;59781;52.090;5.030;2023-11-18T00:47:47;102383.41;;;5.61;100.00
71907;BME280;59781;52.090;5.030;2023-11-18T00:50:14;102375.28;;;5.63;100.00
71907;BME280;59781;52.090;5.030;2023-11-18T00:52:40;102381.00;;;5.57;100.00
71907;BME280;59781;52.090;5.030;2023-11-18T00:55:08;102374.06;;;5.54;100.00
71907;BME280;59781;52.090;5.030;2023-11-18T00:57:36;102372.78;;;5.60;100.00
71907;BME280;59781;52.090;5.030;2023-11-18T01:00:06;102384.94;;;5.78;100.00
71907;BME280;59781;52.090;5.030;2023-11-18T01:02:33;102383.34;;;5.88;100.00
71907;BME280;59781;52.090;5.030;2023-11-18T01:04:59;102379.69;;;5.76;100.00
71907;BME280;59781;52.090;5.030;2023-11-18T01:07:25;102379.34;;;5.68;100.00
71907;BME280;59781;52.090;5.030;2023-11-18T01:09:50;102386.00;;;5.48;100.00
71907;BME280;59781;52.090;5.030;2023-11-18T01:12:16;102391.75;;;5.42;100.00
71907;BME280;59781;52.090;5.030;2023-11-18T01:14:42;102393.16;;;5.48;100.00
71907;BME280;59781;52.090;5.030;2023-11-18T01:17:08;102398.06;;;5.41;100.00
71907;BME280;59781;52.090;5.030;2023-11-18T01:19:34;102395.69;;;5.37;100.00
71907;BME280;59781;52.090;5.030;2023-11-18T01:22:01;102393.38;;;5.31;100.00
71907;BME280;59781;52.090;5.030;2023-11-18T01:24:31;102384.78;;;5.40;100.00
71907;BME280;59781;52.090;5.030;2023-11-18T01:26:58;102383.53;;;5.45;100.00
71907;BME280;59781;52.090;5.030;2023-11-18T01:29:25;102392.41;;;5.46;100.00
71907;BME280;59781;52.090;5.030;2023-11-18T01:31:51;102386.38;;;5.57;100.00
71907;BME280;59781;52.090;5.030;2023-11-18T01:34:21;102392.78;;;5.54;100.00
71907;BME280;59781;52.090;5.030;2023-11-18T01:36:50;102393.53;;;5.56;100.00
71907;BME280;59781;52.090;5.030;2023-11-18T01:39:16;102393.31;;;5.59;100.00
71907;BME280;59781;52.090;5.030;2023-11-18T01:41:46;102411.59;;;5.53;100.00
71907;BME280;59781;52.090;5.030;2023-11-18T01:44:12;102402.03;;;5.48;100.00
71907;BME280;59781;52.090;5.030;2023-11-18T01:46:41;102406.34;;;5.51;100.00
71907;BME280;59781;52.090;5.030;2023-11-18T01:49:11;102395.69;;;5.37;100.00
71907;BME280;59781;52.090;5.030;2023-11-18T01:51:41;102396.75;;;5.34;100.00
71907;BME280;59781;52.090;5.030;2023-11-18T01:54:12;102390.59;;;5.46;100.00
71907;BME280;59781;52.090;5.030;2023-11-18T01:56:47;102395.88;;;5.34;100.00
71907;BME280;59781;52.090;5.030;2023-11-18T01:59:14;102399.88;;;5.41;100.00
71907;BME280;59781;52.090;5.030;2023-11-18T02:01:51;102399.78;;;5.42;100.00
71907;BME280;59781;52.090;5.030;2023-11-18T02:04:19;102408.94;;;5.38;100.00
71907;BME280;59781;52.090;5.030;2023-11-18T02:06:47;102413.94;;;5.57;100.00
71907;BME280;59781;52.090;5.030;2023-11-18T02:09:16;102403.00;;;5.47;100.00
71907;BME280;59781;52.090;5.030;2023-11-18T02:12:14;102405.56;;;5.49;100.00
71907;BME280;59781;52.090;5.030;2023-11-18T02:14:49;102407.31;;;5.36;100.00
71907;BME280;59781;52.090;5.030;2023-11-18T02:17:19;102405.44;;;5.65;100.00
71907;BME280;59781;52.090;5.030;2023-11-18T02:19:50;102404.72;;;5.48;100.00
71907;BME280;59781;52.090;5.030;2023-11-18T02:22:18;102405.28;;;5.54;100.00
71907;BME280;59781;52.090;5.030;2023-11-18T02:24:47;102407.94;;;5.54;100.00
71907;BME280;59781;52.090;5.030;2023-11-18T02:27:12;102412.53;;;5.52;100.00
71907;BME280;59781;52.090;5.030;2023-11-18T02:29:44;102405.56;;;5.49;100.00
71907;BME280;59781;52.090;5.030;2023-11-18T02:35:20;102396.78;;;5.47;100.00
71907;BME280;59781;52.090;5.030;2023-11-18T02:37:54;102386.97;;;5.47;100.00
71907;BME280;59781;52.090;5.030;2023-11-18T02:40:29;102376.84;;;5.53;100.00
71907;BME280;59781;52.090;5.030;2023-11-18T02:43:01;102371.59;;;5.51;100.00
71907;BME280;59781;52.090;5.030;2023-11-18T02:45:32;102375.56;;;5.58;100.00
71907;BME280;59781;52.090;5.030;2023-11-18T02:47:59;102368.72;;;5.54;100.00
71907;BME280;59781;52.090;5.030;2023-11-18T02:50:26;102355.34;;;5.54;100.00
71907;BME280;59781;52.090;5.030;2023-11-18T02:52:53;102361.31;;;5.45;100.00
71907;BME280;59781;52.090;5.030;2023-11-18T02:55:19;102365.91;;;5.43;100.00
71907;BME280;59781;52.090;5.030;2023-11-18T02:57:50;102359.28;;;5.48;100.00
71907;BME280;59781;52.090;5.030;2023-11-18T03:00:19;102357.28;;;5.52;100.00
71907;BME280;59781;52.090;5.030;2023-11-18T03:02:48;102356.00;;;5.58;100.00
71907;BME280;59781;52.090;5.030;2023-11-18T03:05:15;102357.84;;;5.70;100.00
71907;BME280;59781;52.090;5.030;2023-11-18T03:07:42;102350.00;;;5.54;100.00
71907;BME280;59781;52.090;5.030;2023-11-18T03:10:08;102354.94;;;5.60;100.00
71907;BME280;59781;52.090;5.030;2023-11-18T03:12:37;102367.13;;;5.52;100.00
71907;BME280;59781;52.090;5.030;2023-11-18T03:15:06;102360.59;;;5.56;100.00
71907;BME280;59781;52.090;5.030;2023-11-18T03:17:34;102353.94;;;5.48;100.00
71907;BME280;59781;52.090;5.030;2023-11-18T03:20:00;102348.84;;;5.58;100.00
71907;BME280;59781;52.090;5.030;2023-11-18T03:22:26;102346.22;;;5.71;100.00
71907;BME280;59781;52.090;5.030;2023-11-18T03:24:52;102358.28;;;5.64;100.00
71907;BME280;59781;52.090;5.030;2023-11-18T03:27:17;102354.41;;;5.55;100.00
71907;BME280;59781;52.090;5.030;2023-11-18T03:29:43;102341.34;;;5.51;100.00
71907;BME280;59781;52.090;5.030;2023-11-18T03:32:11;102330.09;;;5.72;100.00
71907;BME280;59781;52.090;5.030;2023-11-18T03:34:38;102324.06;;;5.69;100.00
71907;BME280;59781;52.090;5.030;2023-11-18T03:37:03;102318.28;;;5.62;100.00
71907;BME280;59781;52.090;5.030;2023-11-18T03:39:29;102311.75;;;5.54;100.00
71907;BME280;59781;52.090;5.030;2023-11-18T03:41:56;102306.31;;;5.68;100.00
71907;BME280;59781;52.090;5.030;2023-11-18T03:44:22;102297.97;;;5.60;100.00
71907;BME280;59781;52.090;5.030;2023-11-18T03:46:49;102292.00;;;5.69;100.00
71907;BME280;59781;52.090;5.030;2023-11-18T03:49:15;102284.88;;;5.82;100.00
71907;BME280;59781;52.090;5.030;2023-11-18T03:51:41;102283.69;;;5.73;100.00
71907;BME280;59781;52.090;5.030;2023-11-18T03:54:06;102265.19;;;5.83;100.00
71907;BME280;59781;52.090;5.030;2023-11-18T03:56:34;102264.22;;;5.84;100.00
71907;BME280;59781;52.090;5.030;2023-11-18T03:59:00;102267.44;;;5.89;100.00
71907;BME280;59781;52.090;5.030;2023-11-18T04:01:26;102263.66;;;5.66;100.00
71907;BME280;59781;52.090;5.030;2023-11-18T04:03:53;102256.28;;;5.70;100.00
71907;BME280;59781;52.090;5.030;2023-11-18T04:06:20;102250.19;;;5.68;100.00
71907;BME280;59781;52.090;5.030;2023-11-18T04:08:50;102251.59;;;5.73;100.00
71907;BME280;59781;52.090;5.030;2023-11-18T04:11:16;102260.91;;;5.81;100.00
71907;BME280;59781;52.090;5.030;2023-11-18T04:13:43;102263.41;;;5.96;100.00
71907;BME280;59781;52.090;5.030;2023-11-18T04:16:13;102241.53;;;5.77;100.00
71907;BME280;59781;52.090;5.030;2023-11-18T04:18:45;102234.44;;;6.03;100.00
71907;BME280;59781;52.090;5.030;2023-11-18T04:21:12;102226.28;;;6.04;100.00
71907;BME280;59781;52.090;5.030;2023-11-18T04:23:40;102220.59;;;6.09;100.00
71907;BME280;59781;52.090;5.030;2023-11-18T04:26:08;102213.94;;;5.89;100.00
71907;BME280;59781;52.090;5.030;2023-11-18T04:28:35;102221.69;;;5.81;100.00
71907;BME280;59781;52.090;5.030;2023-11-18T04:31:02;102209.56;;;5.75;100.00
71907;BME280;59781;52.090;5.030;2023-11-18T04:33:28;102212.38;;;5.74;100.00
71907;BME280;59781;52.090;5.030;2023-11-18T04:35:54;102212.81;;;5.81;100.00
71907;BME280;59781;52.090;5.030;2023-11-18T04:38:23;102213.75;;;5.67;100.00
71907;BME280;59781;52.090;5.030;2023-11-18T04:40:49;102209.81;;;5.72;100.00
71907;BME280;59781;52.090;5.030;2023-11-18T04:43:15;102206.59;;;5.80;100.00
71907;BME280;59781;52.090;5.030;2023-11-18T04:45:42;102196.66;;;5.82;100.00
71907;BME280;59781;52.090;5.030;2023-11-18T04:48:11;102192.56;;;5.76;100.00
71907;BME280;59781;52.090;5.030;2023-11-18T04:50:42;102191.81;;;5.87;100.00
71907;BME280;59781;52.090;5.030;2023-11-18T04:53:08;102193.25;;;5.93;100.00
71907;BME280;59781;52.090;5.030;2023-11-18T04:55:35;102192.28;;;5.94;100.00
71907;BME280;59781;52.090;5.030;2023-11-18T04:58:01;102198.72;;;5.91;100.00
71907;BME280;59781;52.090;5.030;2023-11-18T05:00:28;102208.09;;;5.84;100.00
71907;BME280;59781;52.090;5.030;2023-11-18T05:02:54;102203.50;;;5.99;100.00
71907;BME280;59781;52.090;5.030;2023-11-18T05:05:20;102203.94;;;6.06;100.00
71907;BME280;59781;52.090;5.030;2023-11-18T05:07:47;102196.66;;;5.95;100.00
71907;BME280;59781;52.090;5.030;2023-11-18T05:10:13;102197.41;;;5.97;100.00
71907;BME280;59781;52.090;5.030;2023-11-18T05:12:39;102199.88;;;6.00;100.00
71907;BME280;59781;52.090;5.030;2023-11-18T05:15:09;102197.22;;;6.00;100.00
71907;BME280;59781;52.090;5.030;2023-11-18T05:17:36;102183.81;;;5.87;100.00
71907;BME280;59781;52.090;5.030;2023-11-18T05:20:03;102167.25;;;5.95;100.00
71907;BME280;59781;52.090;5.030;2023-11-18T05:22:29;102159.97;;;5.97;100.00
71907;BME280;59781;52.090;5.030;2023-11-18T05:24:57;102160.47;;;5.89;100.00
71907;BME280;59781;52.090;5.030;2023-11-18T05:27:23;102157.31;;;5.97;100.00
71907;BME280;59781;52.090;5.030;2023-11-18T05:29:48;102155.28;;;6.00;100.00
71907;BME280;59781;52.090;5.030;2023-11-18T05:32:20;102155.72;;;5.94;100.00
71907;BME280;59781;52.090;5.030;2023-11-18T05:34:49;102159.09;;;6.09;100.00
71907;BME280;59781;52.090;5.030;2023-11-18T05:37:16;102147.91;;;5.91;100.00
71907;BME280;59781;52.090;5.030;2023-11-18T05:39:43;102141.34;;;6.08;100.00
71907;BME280;59781;52.090;5.030;2023-11-18T05:42:11;102136.34;;;6.03;100.00
71907;BME280;59781;52.090;5.030;2023-11-18T05:44:37;102122.72;;;6.07;100.00
71907;BME280;59781;52.090;5.030;2023-11-18T05:47:07;102125.88;;;6.00;100.00
71907;BME280;59781;52.090;5.030;2023-11-18T05:49:36;102128.94;;;6.07;100.00
71907;BME280;59781;52.090;5.030;2023-11-18T05:52:02;102121.34;;;6.14;100.00
71907;BME280;59781;52.090;5.030;2023-11-18T05:54:27;102133.34;;;5.95;100.00
71907;BME280;59781;52.090;5.030;2023-11-18T05:56:53;102123.94;;;6.02;100.00
71907;BME280;59781;52.090;5.030;2023-11-18T05:59:19;102123.19;;;6.00;100.00
71907;BME280;59781;52.090;5.030;2023-11-18T06:01:45;102124.34;;;5.96;100.00
71907;BME280;59781;52.090;5.030;2023-11-18T06:04:13;102119.22;;;6.06;100.00
71907;BME280;59781;52.090;5.030;2023-11-18T06:06:39;102114.16;;;6.14;100.00
71907;BME280;59781;52.090;5.030;2023-11-18T06:09:05;102118.03;;;6.10;100.00
71907;BME280;59781;52.090;5.030;2023-11-18T06:11:34;102119.66;;;6.00;100.00
71907;BME280;59781;52.090;5.030;2023-11-18T06:14:01;102114.41;;;6.11;100.00
71907;BME280;59781;52.090;5.030;2023-11-18T06:16:27;102110.34;;;6.06;100.00
71907;BME280;59781;52.090;5.030;2023-11-18T06:18:58;102114.41;;;6.11;100.00
71907;BME280;59781;52.090;5.030;2023-11-18T06:21:26;102103.38;;;6.03;100.00
71907;BME280;59781;52.090;5.030;2023-11-18T06:24:00;102096.84;;;6.07;100.00
71907;BME280;59781;52.090;5.030;2023-11-18T06:26:27;102092.41;;;6.19;100.00
71907;BME280;59781;52.090;5.030;2023-11-18T06:28:54;102095.56;;;6.13;100.00
71907;BME280;59781;52.090;5.030;2023-11-18T06:31:21;102095.13;;;6.06;100.00
71907;BME280;59781;52.090;5.030;2023-11-18T06:33:49;102109.59;;;6.03;100.00
71907;BME280;59781;52.090;5.030;2023-11-18T06:38:42;102108.84;;;6.01;100.00
71907;BME280;59781;52.090;5.030;2023-11-18T06:41:12;102106.69;;;6.07;100.00
71907;BME280;59781;52.090;5.030;2023-11-18T06:43:41;102095.03;;;6.08;100.00
71907;BME280;59781;52.090;5.030;2023-11-18T06:46:23;102084.13;;;5.98;100.00
71907;BME280;59781;52.090;5.030;2023-11-18T06:48:54;102090.03;;;6.03;100.00
71907;BME280;59781;52.090;5.030;2023-11-18T06:51:23;102094.84;;;5.85;100.00
71907;BME280;59781;52.090;5.030;2023-11-18T06:53:53;102090.69;;;5.94;100.00
71907;BME280;59781;52.090;5.030;2023-11-18T06:56:31;102095.13;;;6.06;100.00
71907;BME280;59781;52.090;5.030;2023-11-18T06:58:56;102099.31;;;5.97;100.00
71907;BME280;59781;52.090;5.030;2023-11-18T07:01:22;102095.69;;;5.86;100.00
71907;BME280;59781;52.090;5.030;2023-11-18T07:03:48;102095.59;;;6.00;100.00
71907;BME280;59781;52.090;5.030;2023-11-18T07:06:19;102099.56;;;5.94;100.00
71907;BME280;59781;52.090;5.030;2023-11-18T07:08:51;102098.34;;;5.86;100.00
71907;BME280;59781;52.090;5.030;2023-11-18T07:11:18;102097.72;;;5.95;100.00
71907;BME280;59781;52.090;5.030;2023-11-18T07:13:44;102110.25;;;5.94;100.00
71907;BME280;59781;52.090;5.030;2023-11-18T07:16:11;102104.56;;;5.99;100.00
71907;BME280;59781;52.090;5.030;2023-11-18T07:18:41;102112.06;;;5.94;100.00
71907;BME280;59781;52.090;5.030;2023-11-18T07:21:09;102115.38;;;6.10;100.00
71907;BME280;59781;52.090;5.030;2023-11-18T07:23:35;102114.75;;;5.94;100.00
71907;BME280;59781;52.090;5.030;2023-11-18T07:26:02;102111.84;;;5.97;100.00
71907;BME280;59781;52.090;5.030;2023-11-18T07:28:31;102124.34;;;5.84;100.00
71907;BME280;59781;52.090;5.030;2023-11-18T07:30:57;102123.28;;;5.86;100.00
71907;BME280;59781;52.090;5.030;2023-11-18T07:33:24;102126.47;;;5.79;100.00
71907;BME280;59781;52.090;5.030;2023-11-18T07:35:50;102135.16;;;5.82;100.00
71907;BME280;59781;52.090;5.030;2023-11-18T07:38:17;102133.97;;;5.86;100.00
71907;BME280;59781;52.090;5.030;2023-11-18T07:40:46;102140.28;;;5.85;100.00
71907;BME280;59781;52.090;5.030;2023-11-18T07:43:13;102132.25;;;5.85;100.00
71907;BME280;59781;52.090;5.030;2023-11-18T07:45:42;102121.91;;;5.81;100.00
71907;BME280;59781;52.090;5.030;2023-11-18T07:48:09;102117.00;;;5.74;100.00
71907;BME280;59781;52.090;5.030;2023-11-18T07:50:38;102115.59;;;5.82;100.00
71907;BME280;59781;52.090;5.030;2023-11-18T07:53:07;102113.47;;;5.74;100.00
71907;BME280;59781;52.090;5.030;2023-11-18T07:55:34;102114.94;;;5.78;100.00
71907;BME280;59781;52.090;5.030;2023-11-18T07:58:00;102116.78;;;5.65;100.00
71907;BME280;59781;52.090;5.030;2023-11-18T08:00:27;102116.56;;;5.81;100.00
71907;BME280;59781;52.090;5.030;2023-11-18T08:02:59;102116.44;;;5.82;100.00
71907;BME280;59781;52.090;5.030;2023-11-18T08:05:26;102119.25;;;5.81;100.00
71907;BME280;59781;52.090;5.030;2023-11-18T08:07:53;102108.66;;;5.92;100.00
71907;BME280;59781;52.090;5.030;2023-11-18T08:10:19;102095.06;;;5.82;100.00
71907;BME280;59781;52.090;5.030;2023-11-18T08:12:47;102088.44;;;6.00;100.00
71907;BME280;59781;52.090;5.030;2023-11-18T08:15:13;102075.78;;;5.90;100.00
71907;BME280;59781;52.090;5.030;2023-11-18T08:17:39;102078.06;;;5.96;100.00
71907;BME280;59781;52.090;5.030;2023-11-18T08:20:05;102082.34;;;5.73;100.00
71907;BME280;59781;52.090;5.030;2023-11-18T08:22:51;102080.50;;;5.86;100.00
71907;BME280;59781;52.090;5.030;2023-11-18T08:25:17;102080.09;;;5.92;100.00
71907;BME280;59781;52.090;5.030;2023-11-18T08:27:43;102077.72;;;5.88;100.00
71907;BME280;59781;52.090;5.030;2023-11-18T08:30:11;102070.16;;;5.82;100.00
71907;BME280;59781;52.090;5.030;2023-11-18T08:32:42;102055.09;;;5.81;100.00
71907;BME280;59781;52.090;5.030;2023-11-18T08:35:11;102069.91;;;5.85;100.00
71907;BME280;59781;52.090;5.030;2023-11-18T08:37:42;102056.84;;;6.06;100.00
71907;BME280;59781;52.090;5.030;2023-11-18T08:40:09;102047.34;;;6.01;100.00
71907;BME280;59781;52.090;5.030;2023-11-18T08:42:44;102049.69;;;6.06;100.00
71907;BME280;59781;52.090;5.030;2023-11-18T08:45:20;102043.94;;;6.23;100.00
71907;BME280;59781;52.090;5.030;2023-11-18T08:47:59;102039.31;;;6.25;100.00
71907;BME280;59781;52.090;5.030;2023-11-18T08:50:37;102026.56;;;6.29;100.00
71907;BME280;59781;52.090;5.030;2023-11-18T08:53:06;102019.88;;;6.23;100.00
71907;BME280;59781;52.090;5.030;2023-11-18T08:55:35;102011.59;;;6.26;100.00
71907;BME280;59781;52.090;5.030;2023-11-18T08:58:05;101999.19;;;6.25;100.00
71907;BME280;59781;52.090;5.030;2023-11-18T09:00:46;101990.72;;;6.31;100.00
71907;BME280;59781;52.090;5.030;2023-11-18T09:03:24;101992.31;;;6.34;100.00
71907;BME280;59781;52.090;5.030;2023-11-18T09:05:52;101986.84;;;6.36;100.00
71907;BME280;59781;52.090;5.030;2023-11-18T09:08:29;102003.53;;;6.39;100.00
71907;BME280;59781;52.090;5.030;2023-11-18T09:11:02;101997.06;;;6.30;100.00
71907;BME280;59781;52.090;5.030;2023-11-18T09:13:30;101987.94;;;6.33;100.00
71907;BME280;59781;52.090;5.030;2023-11-18T09:15:58;101988.22;;;6.41;100.00
71907;BME280;59781;52.090;5.030;2023-11-18T09:18:29;101981.09;;;6.29;100.00
71907;BME280;59781;52.090;5.030;2023-11-18T09:20:57;101980.91;;;6.43;100.00
71907;BME280;59781;52.090;5.030;2023-11-18T09:23:30;101969.81;;;6.37;100.00
71907;BME280;59781;52.090;5.030;2023-11-18T09:26:01;101950.66;;;6.19;100.00
71907;BME280;59781;52.090;5.030;2023-11-18T09:28:28;101937.09;;;6.33;100.00
71907;BME280;59781;52.090;5.030;2023-11-18T09:30:57;101935.16;;;6.35;100.00
71907;BME280;59781;52.090;5.030;2023-11-18T09:33:30;101944.16;;;6.34;100.00
71907;BME280;59781;52.090;5.030;2023-11-18T09:36:01;101932.09;;;6.28;100.00
71907;BME280;59781;52.090;5.030;2023-11-18T09:38:33;101936.72;;;6.38;100.00
71907;BME280;59781;52.090;5.030;2023-11-18T09:41:07;101930.31;;;6.40;100.00
71907;BME280;59781;52.090;5.030;2023-11-18T09:43:37;101920.69;;;6.38;100.00
71907;BME280;59781;52.090;5.030;2023-11-18T09:46:28;101929.94;;;6.45;100.00
71907;BME280;59781;52.090;5.030;2023-11-18T09:49:40;101944.69;;;6.50;100.00
71907;BME280;59781;52.090;5.030;2023-11-18T09:52:06;101949.53;;;6.45;100.00
71907;BME280;59781;52.090;5.030;2023-11-18T09:54:40;101949.06;;;6.40;100.00
71907;BME280;59781;52.090;5.030;2023-11-18T09:57:38;101940.47;;;6.59;100.00
71907;BME280;59781;52.090;5.030;2023-11-18T10:00:07;101935.81;;;6.50;100.00
71907;BME280;59781;52.090;5.030;2023-11-18T10:02:52;101922.59;;;6.59;100.00
71907;BME280;59781;52.090;5.030;2023-11-18T10:05:22;101929.91;;;6.69;100.00
71907;BME280;59781;52.090;5.030;2023-11-18T10:07:52;101929.78;;;6.70;100.00
71907;BME280;59781;52.090;5.030;2023-11-18T10:10:19;101925.00;;;6.63;100.00
71907;BME280;59781;52.090;5.030;2023-11-18T10:12:51;101926.13;;;6.71;100.00
71907;BME280;59781;52.090;5.030;2023-11-18T10:15:24;101925.50;;;6.68;100.00
71907;BME280;59781;52.090;5.030;2023-11-18T10:17:51;101932.06;;;6.64;100.00
71907;BME280;59781;52.090;5.030;2023-11-18T10:20:51;101943.63;;;6.75;100.00
71907;BME280;59781;52.090;5.030;2023-11-18T10:23:21;101948.00;;;6.65;100.00
71907;BME280;59781;52.090;5.030;2023-11-18T10:25:49;101931.59;;;6.70;100.00
71907;BME280;59781;52.090;5.030;2023-11-18T10:28:32;101923.19;;;6.74;100.00
71907;BME280;59781;52.090;5.030;2023-11-18T10:31:04;101912.00;;;6.69;100.00
71907;BME280;59781;52.090;5.030;2023-11-18T10:33:32;101887.28;;;6.66;100.00
71907;BME280;59781;52.090;5.030;2023-11-18T10:36:02;101880.22;;;6.65;100.00
71907;BME280;59781;52.090;5.030;2023-11-18T10:38:38;101879.03;;;6.69;100.00
71907;BME280;59781;52.090;5.030;2023-11-18T10:41:09;101868.22;;;6.70;100.00
71907;BME280;59781;52.090;5.030;2023-11-18T10:43:35;101862.84;;;6.70;100.00
71907;BME280;59781;52.090;5.030;2023-11-18T10:46:06;101865.66;;;6.80;100.00
71907;BME280;59781;52.090;5.030;2023-11-18T10:48:40;101860.53;;;6.88;100.00
71907;BME280;59781;52.090;5.030;2023-11-18T10:51:11;101862.22;;;6.78;100.00
71907;BME280;59781;52.090;5.030;2023-11-18T10:53:42;101869.66;;;6.85;100.00
71907;BME280;59781;52.090;5.030;2023-11-18T10:56:25;101872.47;;;6.73;100.00
71907;BME280;59781;52.090;5.030;2023-11-18T10:58:58;101868.09;;;6.83;100.00
71907;BME280;59781;52.090;5.030;2023-11-18T11:01:35;101867.22;;;6.82;100.00
71907;BME280;59781;52.090;5.030;2023-11-18T11:04:11;101852.25;;;6.91;100.00
71907;BME280;59781;52.090;5.030;2023-11-18T11:06:45;101824.25;;;6.84;100.00
71907;BME280;59781;52.090;5.030;2023-11-18T11:09:19;101808.69;;;6.78;100.00
71907;BME280;59781;52.090;5.030;2023-11-18T11:11:54;101805.16;;;6.77;100.00
71907;BME280;59781;52.090;5.030;2023-11-18T11:14:33;101775.22;;;6.83;100.00
71907;BME280;59781;52.090;5.030;2023-11-18T11:17:13;101731.03;;;6.78;100.00
71907;BME280;59781;52.090;5.030;2023-11-18T11:19:58;101710.97;;;6.83;100.00
71907;BME280;59781;52.090;5.030;2023-11-18T11:26:12;101723.84;;;6.89;100.00
71907;BME280;59781;52.090;5.030;2023-11-18T11:31:55;101729.66;;;6.95;100.00
71907;BME280;59781;52.090;5.030;2023-11-18T11:34:54;101721.38;;;7.09;100.00
71907;BME280;59781;52.090;5.030;2023-11-18T11:37:33;101725.09;;;7.17;100.00
71907;BME280;59781;52.090;5.030;2023-11-18T11:40:03;101749.28;;;8.31;100.00
71907;BME280;59781;52.090;5.030;2023-11-18T11:42:35;101735.38;;;7.33;100.00
71907;BME280;59781;52.090;5.030;2023-11-18T11:45:01;101717.75;;;7.31;100.00
71907;BME280;59781;52.090;5.030;2023-11-18T11:47:30;101690.88;;;7.42;100.00
71907;BME280;59781;52.090;5.030;2023-11-18T11:50:13;101669.81;;;7.37;100.00
71907;BME280;59781;52.090;5.030;2023-11-18T11:52:53;101659.38;;;7.34;100.00
71907;BME280;59781;52.090;5.030;2023-11-18T11:55:38;101684.28;;;7.46;100.00
71907;BME280;59781;52.090;5.030;2023-11-18T11:58:26;101659.59;;;7.42;100.00
71907;BME280;59781;52.090;5.030;2023-11-18T12:00:52;101642.31;;;7.35;100.00
71907;BME280;59781;52.090;5.030;2023-11-18T12:03:21;101644.63;;;7.40;100.00
71907;BME280;59781;52.090;5.030;2023-11-18T12:05:55;101643.69;;;7.51;100.00
71907;BME280;59781;52.090;5.030;2023-11-18T12:08:24;101651.09;;;7.58;100.00
71907;BME280;59781;52.090;5.030;2023-11-18T12:10:51;101658.53;;;7.55;100.00
71907;BME280;59781;52.090;5.030;2023-11-18T12:13:19;101628.13;;;7.44;100.00
71907;BME280;59781;52.090;5.030;2023-11-18T12:15:55;101624.66;;;9.42;100.00
71907;BME280;59781;52.090;5.030;2023-11-18T12:18:29;101627.16;;;7.97;100.00
71907;BME280;59781;52.090;5.030;2023-11-18T12:20:59;101632.91;;;7.92;100.00
71907;BME280;59781;52.090;5.030;2023-11-18T12:23:28;101615.41;;;7.88;100.00
71907;BME280;59781;52.090;5.030;2023-11-18T12:25:56;101614.66;;;8.17;100.00
71907;BME280;59781;52.090;5.030;2023-11-18T12:28:34;101602.03;;;7.98;100.00
71907;BME280;59781;52.090;5.030;2023-11-18T12:31:04;101610.03;;;7.88;100.00
71907;BME280;59781;52.090;5.030;2023-11-18T12:39:27;101592.56;;;8.03;100.00
71907;BME280;59781;52.090;5.030;2023-11-18T12:42:09;101543.44;;;8.03;100.00
71907;BME280;59781;52.090;5.030;2023-11-18T12:47:43;101514.91;;;7.92;100.00
71907;BME280;59781;52.090;5.030;2023-11-18T12:50:11;101517.03;;;7.98;100.00
71907;BME280;59781;52.090;5.030;2023-11-18T12:52:49;101502.63;;;9.53;100.00
71907;BME280;59781;52.090;5.030;2023-11-18T12:55:20;101483.72;;;8.01;100.00
71907;BME280;59781;52.090;5.030;2023-11-18T12:57:47;101468.78;;;8.08;100.00
71907;BME280;59781;52.090;5.030;2023-11-18T13:00:15;101488.41;;;8.09;100.00
71907;BME280;59781;52.090;5.030;2023-11-18T13:02:44;101484.41;;;7.93;100.00
71907;BME280;59781;52.090;5.030;2023-11-18T13:05:10;101474.81;;;8.00;100.00
71907;BME280;59781;52.090;5.030;2023-11-18T13:07:36;101482.59;;;8.03;100.00
71907;BME280;59781;52.090;5.030;2023-11-18T13:10:03;101498.69;;;8.03;100.00
71907;BME280;59781;52.090;5.030;2023-11-18T13:12:30;101453.53;;;8.28;100.00
71907;BME280;59781;52.090;5.030;2023-11-18T13:14:56;101466.94;;;8.09;100.00
71907;BME280;59781;52.090;5.030;2023-11-18T13:17:22;101448.72;;;8.12;100.00
71907;BME280;59781;52.090;5.030;2023-11-18T13:19:48;101456.47;;;8.15;100.00
71907;BME280;59781;52.090;5.030;2023-11-18T13:22:17;101446.19;;;8.20;100.00
71907;BME280;59781;52.090;5.030;2023-11-18T13:24:45;101425.28;;;8.04;100.00